Time;durP1;ratioP1;P1;durP2;ratioP2;P2;SDS_P1;SDS_P2;PMS_P1;PMS_P2;Temp;Humidity;BMP_temperature;BMP_pressure;BME280_temperature;BME280_humidity;BME280_pressure;Samples;Min_cycle;Max_cycle;Signal;HPM_P1;HPM_P2
2023/09/18 00:00:26;;;;;;;7.43;4.90;;;;;;;23.57;61.69;100525.88;4997327;28;20030;-67
2023/09/18 00:02:52;;;;;;;5.88;4.63;;;;;;;23.55;61.69;100520.75;4997544;28;20034;-68
2023/09/18 00:05:17;;;;;;;5.93;4.22;;;;;;;23.55;61.35;100506.63;4997032;28;20069;-67
2023/09/18 00:07:43;;;;;;;5.57;4.43;;;;;;;23.55;61.50;100507.44;4997638;28;20026;-67
2023/09/18 00:10:10;;;;;;;6.65;4.60;;;;;;;23.55;61.62;100511.94;4997631;28;20525;-66
2023/09/18 00:12:36;;;;;;;6.85;4.63;;;;;;;23.54;61.16;100511.13;4997898;28;20064;-68
2023/09/18 00:15:01;;;;;;;5.38;4.22;;;;;;;23.54;61.56;100504.94;4997200;28;20467;-67
2023/09/18 00:17:26;;;;;;;7.80;4.63;;;;;;;23.54;61.50;100499.63;4997483;28;20455;-66
2023/09/18 00:19:52;;;;;;;6.32;5.05;;;;;;;23.53;61.10;100492.66;4997128;28;20022;-67
2023/09/18 00:22:17;;;;;;;6.80;4.80;;;;;;;23.51;61.67;100476.88;4997312;28;20185;-67
2023/09/18 00:24:42;;;;;;;6.38;4.35;;;;;;;23.52;61.10;100472.38;4997313;28;20527;-68
2023/09/18 00:27:08;;;;;;;6.85;4.57;;;;;;;23.53;61.00;100469.56;4997278;28;20030;-66
2023/09/18 00:29:33;;;;;;;7.60;4.70;;;;;;;23.52;60.99;100465.22;4996953;28;20556;-67
2023/09/18 00:31:58;;;;;;;6.50;4.70;;;;;;;23.53;61.41;100456.25;4997329;28;20050;-68
2023/09/18 00:34:24;;;;;;;5.95;4.53;;;;;;;23.53;61.39;100458.91;4996943;28;20157;-67
2023/09/18 00:36:49;;;;;;;5.65;3.90;;;;;;;23.52;61.10;100454.59;4996778;28;20025;-67
2023/09/18 00:39:15;;;;;;;6.35;4.57;;;;;;;23.52;61.42;100448.44;4996479;28;20030;-67
2023/09/18 00:41:41;;;;;;;6.35;4.47;;;;;;;23.52;61.33;100443.13;5012129;28;20042;-67
2023/09/18 00:44:06;;;;;;;5.75;4.13;;;;;;;23.50;61.29;100437.97;4987081;28;20042;-67
2023/09/18 00:46:33;;;;;;;6.72;4.32;;;;;;;23.50;61.37;100435.31;4997112;28;20037;-67
2023/09/18 00:48:58;;;;;;;6.55;4.78;;;;;;;23.51;61.13;100436.13;4997171;28;20037;-66
2023/09/18 00:51:24;;;;;;;6.30;4.82;;;;;;;23.52;61.52;100438.63;4996442;28;20026;-67
2023/09/18 00:53:49;;;;;;;6.43;4.40;;;;;;;23.50;61.42;100437.97;4996848;28;20057;-66
2023/09/18 00:56:15;;;;;;;7.20;4.68;;;;;;;23.51;61.13;100425.50;4996755;28;20053;-66
2023/09/18 00:58:41;;;;;;;6.60;4.60;;;;;;;23.50;61.45;100419.34;4996337;28;20034;-67
2023/09/18 01:01:08;;;;;;;5.88;4.47;;;;;;;23.49;60.92;100417.69;4995874;28;20033;-66
2023/09/18 01:03:34;;;;;;;5.75;4.47;;;;;;;23.50;61.14;100411.38;4996875;28;20045;-67
2023/09/18 01:05:59;;;;;;;5.88;4.57;;;;;;;23.50;61.20;100403.41;4996639;28;20026;-67
2023/09/18 01:08:25;;;;;;;5.53;4.35;;;;;;;23.48;61.46;100392.13;4996305;28;20029;-67
2023/09/18 01:11:04;;;;;;;7.00;4.30;;;;;;;23.49;61.47;100391.09;4996236;28;20056;-66
2023/09/18 01:14:10;;;;;;;7.30;4.30;;;;;;;23.48;61.37;100389.47;4999398;28;20084;-67
2023/09/18 01:16:43;;;;;;;5.90;4.30;;;;;;;23.49;61.41;100379.63;4980840;28;20050;-67
2023/09/18 01:19:09;;;;;;;5.97;4.80;;;;;;;23.50;61.08;100366.16;5000475;28;20038;-67
2023/09/18 01:21:35;;;;;;;5.00;3.92;;;;;;;23.50;61.41;100371.50;5000133;28;20065;-67
2023/09/18 01:24:00;;;;;;;5.05;3.97;;;;;;;23.50;61.39;100379.47;5000802;28;20053;-67
2023/09/18 01:26:25;;;;;;;5.65;4.25;;;;;;;23.48;61.26;100381.47;5000458;28;20413;-67
2023/09/18 01:28:50;;;;;;;7.40;4.88;;;;;;;23.48;61.37;100375.31;5000705;28;20045;-68
2023/09/18 01:31:17;;;;;;;5.75;4.00;;;;;;;23.49;61.13;100382.31;4999982;28;20918;-67
2023/09/18 01:33:44;;;;;;;5.75;4.28;;;;;;;23.46;60.90;100378.13;5000012;28;20041;-67
2023/09/18 01:36:11;;;;;;;6.00;4.05;;;;;;;23.47;60.97;100379.81;5000245;28;20025;-68
2023/09/18 01:38:37;;;;;;;5.97;4.35;;;;;;;23.47;61.31;100390.44;5000653;28;20026;-67
2023/09/18 01:41:02;;;;;;;6.30;4.30;;;;;;;23.46;61.42;100386.13;5000091;28;20041;-67
2023/09/18 01:43:28;;;;;;;6.30;4.50;;;;;;;23.46;61.35;100380.81;5000049;28;20075;-66
2023/09/18 01:45:54;;;;;;;6.43;4.35;;;;;;;23.46;61.30;100378.13;4999707;28;20367;-67
2023/09/18 01:48:20;;;;;;;6.25;3.78;;;;;;;23.47;61.13;100387.78;5000165;28;20026;-68
2023/09/18 01:50:45;;;;;;;5.47;4.30;;;;;;;23.47;61.29;100381.66;4999820;28;20418;-67
2023/09/18 01:53:11;;;;;;;5.35;3.72;;;;;;;23.48;61.21;100381.47;4999732;28;20046;-67
2023/09/18 01:55:36;;;;;;;7.35;4.28;;;;;;;23.47;61.33;100377.16;5000168;28;20170;-67
2023/09/18 01:58:02;;;;;;;6.25;4.28;;;;;;;23.46;61.23;100372.81;4999808;28;20066;-67
2023/09/18 02:00:28;;;;;;;6.60;3.92;;;;;;;23.47;61.07;100369.16;4999786;28;20033;-66
2023/09/18 02:02:53;;;;;;;6.78;4.38;;;;;;;23.47;61.35;100369.16;4999271;28;20458;-66
2023/09/18 02:05:18;;;;;;;6.53;4.18;;;;;;;23.47;61.01;100365.69;5000383;28;20112;-69
2023/09/18 02:07:43;;;;;;;5.72;3.90;;;;;;;23.46;61.13;100364.03;4999722;28;20030;-68
2023/09/18 02:10:09;;;;;;;5.05;3.70;;;;;;;23.48;61.21;100367.34;4999570;28;20471;-67
2023/09/18 02:12:34;;;;;;;6.60;4.10;;;;;;;23.47;60.96;100368.34;4999332;28;20505;-67
2023/09/18 02:15:04;;;;;;;5.78;4.22;;;;;;;23.45;61.43;100357.88;4999824;28;20030;-67
2023/09/18 02:17:29;;;;;;;6.53;3.92;;;;;;;23.44;61.11;100364.19;4999280;28;20057;-67
2023/09/18 02:19:54;;;;;;;4.90;3.72;;;;;;;23.45;61.10;100357.03;4999317;28;20112;-67
2023/09/18 02:22:20;;;;;;;5.85;3.85;;;;;;;23.44;60.94;100356.22;4999333;28;20034;-67
2023/09/18 02:24:45;;;;;;;6.65;4.00;;;;;;;23.44;61.33;100340.25;4999600;28;20041;-67
2023/09/18 02:27:11;;;;;;;5.82;3.58;;;;;;;23.44;61.03;100342.91;4999255;28;20037;-69
2023/09/18 02:29:37;;;;;;;6.15;3.90;;;;;;;23.45;60.85;100328.63;4998495;28;20490;-67
2023/09/18 02:32:02;;;;;;;6.40;4.13;;;;;;;23.45;60.79;100320.66;5014099;28;20040;-67
2023/09/18 02:34:27;;;;;;;5.57;3.97;;;;;;;23.45;61.38;100317.16;4998764;28;20073;-67
2023/09/18 02:36:52;;;;;;;6.03;3.72;;;;;;;23.44;61.34;100319.00;4998830;28;20423;-67
2023/09/18 02:39:18;;;;;;;5.40;3.60;;;;;;;23.45;61.39;100318.00;4999369;28;20034;-67
2023/09/18 02:41:43;;;;;;;5.22;3.67;;;;;;;23.44;61.24;100315.50;4998989;28;20263;-67
2023/09/18 02:44:09;;;;;;;6.17;3.70;;;;;;;23.45;60.95;100310.03;4998823;28;20479;-67
2023/09/18 02:46:34;;;;;;;5.43;3.70;;;;;;;23.45;61.00;100290.56;4998951;28;20298;-67
2023/09/18 02:48:59;;;;;;;5.45;3.88;;;;;;;23.44;60.97;100288.91;4998948;28;20026;-67
2023/09/18 02:51:24;;;;;;;5.47;3.47;;;;;;;23.44;61.25;100289.75;4998970;28;20026;-67
2023/09/18 02:53:50;;;;;;;5.60;3.63;;;;;;;23.44;60.88;100294.25;4998717;28;20069;-67
2023/09/18 02:56:15;;;;;;;6.70;3.92;;;;;;;23.44;61.41;100291.59;4998867;28;20470;-67
2023/09/18 02:58:40;;;;;;;6.53;3.67;;;;;;;23.45;61.04;100290.56;4999077;28;20026;-67
2023/09/18 03:01:07;;;;;;;6.30;3.80;;;;;;;23.42;60.87;100265.16;4998832;28;20045;-67
2023/09/18 03:03:33;;;;;;;6.05;3.90;;;;;;;23.43;61.45;100260.66;4998654;28;20118;-66
2023/09/18 03:06:03;;;;;;;5.35;3.78;;;;;;;23.42;61.33;100254.53;4998052;28;20117;-67
2023/09/18 03:08:28;;;;;;;6.68;3.75;;;;;;;23.42;61.19;100251.88;4998989;28;20587;-67
2023/09/18 03:10:54;;;;;;;6.70;4.13;;;;;;;23.42;61.47;100243.06;4998483;28;20067;-66
2023/09/18 03:13:19;;;;;;;5.68;3.47;;;;;;;23.43;61.02;100258.84;4998646;28;20483;-67
2023/09/18 03:15:46;;;;;;;5.95;3.40;;;;;;;23.42;61.40;100251.88;4998193;28;20109;-67
2023/09/18 03:18:11;;;;;;;6.22;3.58;;;;;;;23.42;61.00;100238.56;4998340;28;20034;-67
2023/09/18 03:20:37;;;;;;;6.15;3.70;;;;;;;23.41;61.47;100252.84;4998271;28;20306;-67
2023/09/18 03:23:02;;;;;;;5.47;3.50;;;;;;;23.42;61.07;100257.19;4998097;28;20030;-67
2023/09/18 03:25:28;;;;;;;7.45;3.30;;;;;;;23.41;61.19;100260.84;4998381;28;20487;-67
2023/09/18 03:27:55;;;;;;;5.25;3.38;;;;;;;23.41;61.45;100258.19;4998322;28;20463;-66
2023/09/18 03:30:21;;;;;;;7.10;3.70;;;;;;;23.41;61.02;100268.81;4997868;28;20109;-68
2023/09/18 03:32:48;;;;;;;5.40;3.70;;;;;;;23.41;61.04;100270.66;4997653;28;20038;-68
2023/09/18 03:35:19;;;;;;;5.45;3.70;;;;;;;23.42;60.90;100275.78;4997490;28;20040;-66
2023/09/18 03:37:45;;;;;;;5.72;3.58;;;;;;;23.41;61.09;100271.47;4998170;28;20069;-66
2023/09/18 03:40:11;;;;;;;5.35;3.50;;;;;;;23.41;60.90;100266.16;4997900;28;20061;-66
2023/09/18 03:42:37;;;;;;;6.13;3.55;;;;;;;23.41;61.02;100254.69;4997737;28;20077;-67
2023/09/18 03:45:05;;;;;;;6.50;4.13;;;;;;;23.41;61.37;100268.00;4997504;28;20037;-67
2023/09/18 03:47:30;;;;;;;6.10;3.78;;;;;;;23.39;61.47;100272.66;4997120;28;20073;-67
2023/09/18 03:49:55;;;;;;;7.55;4.05;;;;;;;23.41;61.09;100271.47;4998052;28;20062;-67
2023/09/18 03:52:21;;;;;;;8.82;4.20;;;;;;;23.41;61.30;100276.78;4997584;28;20471;-66
2023/09/18 03:54:46;;;;;;;7.03;3.53;;;;;;;23.41;61.42;100273.31;4997534;28;20101;-68
2023/09/18 03:57:11;;;;;;;6.65;3.75;;;;;;;23.41;61.10;100265.34;4997886;28;20038;-66
2023/09/18 03:59:37;;;;;;;5.43;3.72;;;;;;;23.39;61.42;100260.19;4997763;28;20022;-66
2023/09/18 04:02:03;;;;;;;7.22;3.85;;;;;;;23.41;60.93;100282.09;4997560;28;20034;-67
2023/09/18 04:04:28;;;;;;;6.72;3.83;;;;;;;23.40;61.57;100296.41;4997652;28;20034;-67
2023/09/18 04:06:54;;;;;;;5.82;3.40;;;;;;;23.41;61.12;100302.56;4997316;28;20085;-67
2023/09/18 04:09:19;;;;;;;7.13;3.97;;;;;;;23.40;61.54;100290.25;4997655;28;20056;-67
2023/09/18 04:11:44;;;;;;;7.75;3.70;;;;;;;23.40;61.50;100293.75;4997568;28;20049;-68
2023/09/18 04:14:10;;;;;;;4.70;3.30;;;;;;;23.41;61.44;100291.94;4997282;28;20041;-67
2023/09/18 04:16:35;;;;;;;5.95;3.80;;;;;;;23.41;61.60;100283.94;4996101;28;20050;-67
2023/09/18 04:19:01;;;;;;;6.07;3.58;;;;;;;23.40;61.43;100279.63;4997482;28;20050;-67
2023/09/18 04:21:29;;;;;;;7.13;3.83;;;;;;;23.39;61.51;100264.69;4997426;28;20165;-67
2023/09/18 04:23:57;;;;;;;6.22;3.75;;;;;;;23.40;61.54;100267.19;4997242;28;20118;-66
2023/09/18 04:26:23;;;;;;;6.10;3.60;;;;;;;23.41;61.54;100254.69;4996936;28;20376;-67
2023/09/18 04:28:49;;;;;;;5.95;3.70;;;;;;;23.40;61.02;100261.84;4996772;28;20124;-66
2023/09/18 04:31:14;;;;;;;5.93;3.60;;;;;;;23.40;61.53;100259.19;4996825;28;20451;-67
2023/09/18 04:33:39;;;;;;;5.60;3.70;;;;;;;23.41;61.67;100252.03;4997044;28;20049;-66
2023/09/18 04:36:05;;;;;;;6.32;3.88;;;;;;;23.39;61.21;100254.06;4995932;28;20025;-66
2023/09/18 04:38:30;;;;;;;5.25;3.60;;;;;;;23.40;61.66;100243.25;4996400;28;20034;-68
2023/09/18 04:40:59;;;;;;;6.15;3.75;;;;;;;23.39;61.71;100215.00;4996721;28;20397;-67
2023/09/18 04:43:25;;;;;;;7.18;3.72;;;;;;;23.38;61.52;100202.69;4988493;28;20085;-68
2023/09/18 04:45:51;;;;;;;7.90;3.72;;;;;;;23.39;61.31;100200.88;4996624;28;20471;-67
2023/09/18 04:48:16;;;;;;;5.70;3.42;;;;;;;23.40;61.57;100207.81;4996331;28;20125;-69
2023/09/18 04:50:42;;;;;;;6.72;3.80;;;;;;;23.40;61.19;100197.19;4996677;28;20022;-66
2023/09/18 04:53:08;;;;;;;5.75;3.60;;;;;;;23.38;61.24;100186.72;4996932;28;20052;-67
2023/09/18 04:55:34;;;;;;;6.18;4.18;;;;;;;23.38;61.63;100192.06;4996584;28;20026;-67
2023/09/18 04:57:59;;;;;;;5.60;3.45;;;;;;;23.38;61.43;100186.72;4996573;28;20034;-67
2023/09/18 05:00:26;;;;;;;6.75;3.95;;;;;;;23.38;61.69;100192.06;4996916;28;20030;-66
2023/09/18 05:02:52;;;;;;;7.93;3.85;;;;;;;23.36;61.39;100188.75;4996610;28;20422;-66
2023/09/18 05:05:17;;;;;;;7.80;4.43;;;;;;;23.37;61.18;100185.09;4996661;28;20034;-67
2023/09/18 05:07:43;;;;;;;6.05;3.30;;;;;;;23.38;61.70;100184.06;4996310;28;20026;-67
2023/09/18 05:10:09;;;;;;;6.07;3.67;;;;;;;23.38;61.71;100188.56;4996930;28;20387;-67
2023/09/18 05:12:34;;;;;;;6.13;3.80;;;;;;;23.38;61.19;100193.91;4996315;28;20034;-67
2023/09/18 05:15:00;;;;;;;7.78;3.58;;;;;;;23.39;61.63;100192.91;4995813;28;20133;-66
2023/09/18 05:17:41;;;;;;;6.75;3.28;;;;;;;23.36;61.30;100191.41;4996155;28;20124;-67
2023/09/18 05:20:07;;;;;;;6.75;3.47;;;;;;;23.37;61.56;100206.38;4995675;28;20034;-66
2023/09/18 05:22:33;;;;;;;6.47;3.88;;;;;;;23.39;61.29;100208.84;4995129;28;20482;-67
2023/09/18 05:24:58;;;;;;;7.75;4.00;;;;;;;23.38;61.15;100210.66;4996107;28;20523;-67
2023/09/18 05:27:25;;;;;;;4.90;3.35;;;;;;;23.35;61.59;100211.84;4996802;28;20130;-67
2023/09/18 05:29:50;;;;;;;5.85;3.22;;;;;;;23.35;61.65;100214.53;4995777;28;20031;-67
2023/09/18 05:32:15;;;;;;;7.25;3.75;;;;;;;23.35;61.59;100189.75;4995177;28;20145;-67
2023/09/18 05:34:40;;;;;;;5.30;3.60;;;;;;;23.37;61.42;100190.41;4995806;28;20078;-67
2023/09/18 05:37:06;;;;;;;6.30;3.15;;;;;;;23.36;61.10;100199.38;4994964;28;20375;-66
2023/09/18 05:39:31;;;;;;;6.20;3.30;;;;;;;23.36;61.02;100205.53;4995942;28;20029;-66
2023/09/18 05:41:57;;;;;;;5.95;3.13;;;;;;;23.35;61.38;100193.25;4995941;28;20045;-65
2023/09/18 05:44:23;;;;;;;5.60;3.15;;;;;;;23.33;61.25;100189.09;4996582;28;20077;-66
2023/09/18 05:46:48;;;;;;;6.00;3.10;;;;;;;23.36;61.45;100207.34;4996368;28;20034;-67
2023/09/18 05:49:14;;;;;;;4.93;2.83;;;;;;;23.38;60.79;100207.19;4995893;28;20030;-67
2023/09/18 05:51:39;;;;;;;5.43;3.03;;;;;;;23.39;60.94;100219.50;4995884;28;20494;-67
2023/09/18 05:54:05;;;;;;;6.47;3.20;;;;;;;23.42;60.73;100217.31;4995825;28;20234;-67
2023/09/18 05:56:30;;;;;;;4.90;2.95;;;;;;;23.43;61.22;100218.13;4995512;28;20073;-68
2023/09/18 05:58:55;;;;;;;4.97;2.67;;;;;;;23.42;60.80;100217.31;4997560;28;20026;-67
2023/09/18 06:01:21;;;;;;;5.22;3.10;;;;;;;23.43;61.10;100231.41;5000091;28;20683;-69
2023/09/18 06:03:47;;;;;;;5.63;3.03;;;;;;;23.41;61.29;100228.09;4999783;28;20037;-67
2023/09/18 06:06:12;;;;;;;5.47;2.78;;;;;;;23.45;61.13;100240.03;4999870;28;20387;-68
2023/09/18 06:08:38;;;;;;;4.60;3.13;;;;;;;23.45;61.16;100226.75;4999681;28;20168;-67
2023/09/18 06:11:03;;;;;;;5.25;2.80;;;;;;;23.43;61.07;100240.25;4999504;28;20030;-66
2023/09/18 06:13:29;;;;;;;4.17;2.50;;;;;;;23.44;60.68;100241.06;4999225;28;20077;-68
2023/09/18 06:15:55;;;;;;;5.43;2.70;;;;;;;23.43;60.59;100234.91;4990026;28;20286;-67
2023/09/18 06:18:21;;;;;;;4.63;2.85;;;;;;;23.42;61.19;100238.56;4998976;28;20297;-68
2023/09/18 06:20:48;;;;;;;5.63;2.97;;;;;;;23.41;60.56;100234.25;4999344;28;20086;-67
2023/09/18 06:23:13;;;;;;;5.85;2.80;;;;;;;23.43;60.84;100240.25;4999108;28;20574;-68
2023/09/18 06:25:41;;;;;;;6.78;2.65;;;;;;;23.41;60.71;100252.03;4999298;28;20112;-68
2023/09/18 06:28:07;;;;;;;5.43;2.80;;;;;;;23.43;61.01;100256.19;4999489;28;20041;-69
2023/09/18 06:30:34;;;;;;;7.43;2.92;;;;;;;23.41;60.58;100250.19;4999303;28;20042;-66
2023/09/18 06:33:00;;;;;;;4.78;2.47;;;;;;;23.38;60.89;100253.19;4999024;28;20022;-67
2023/09/18 06:35:25;;;;;;;5.72;2.42;;;;;;;23.38;60.78;100250.53;4999424;28;20500;-68
2023/09/18 06:37:51;;;;;;;4.35;2.58;;;;;;;23.38;60.98;100260.34;4999358;28;20049;-68
2023/09/18 06:40:17;;;;;;;3.90;2.40;;;;;;;23.37;61.16;100256.88;4998779;28;20553;-68
2023/09/18 06:42:42;;;;;;;4.18;2.28;;;;;;;23.36;61.00;100269.31;4999037;28;20030;-68
2023/09/18 06:45:08;;;;;;;4.22;2.30;;;;;;;23.37;60.98;100267.53;4999040;28;20052;-67
2023/09/18 06:47:34;;;;;;;5.05;2.50;;;;;;;23.36;61.07;100265.84;4998677;28;20038;-67
2023/09/18 06:50:00;;;;;;;4.85;2.47;;;;;;;23.36;61.00;100273.81;4999120;28;20474;-67
2023/09/18 06:52:26;;;;;;;4.05;2.30;;;;;;;23.35;61.18;100283.66;4998789;28;20029;-66
2023/09/18 06:54:52;;;;;;;4.10;2.33;;;;;;;23.34;61.17;100284.63;4998668;28;20049;-67
2023/09/18 06:57:17;;;;;;;4.10;2.20;;;;;;;23.35;61.03;100296.09;4998591;28;20027;-67
2023/09/18 06:59:43;;;;;;;4.47;2.30;;;;;;;23.36;61.71;100295.91;4998798;28;20040;-69
2023/09/18 07:02:08;;;;;;;5.65;2.25;;;;;;;23.36;61.13;100298.56;4998172;28;20478;-67
2023/09/18 07:04:33;;;;;;;3.72;2.30;;;;;;;23.36;61.12;100297.75;4998898;28;20038;-68
2023/09/18 07:06:59;;;;;;;7.03;2.70;;;;;;;23.38;61.63;100285.09;4998646;28;20065;-68
2023/09/18 07:09:25;;;;;;;4.25;2.22;;;;;;;23.36;61.57;100292.44;4998298;28;20120;-67
2023/09/18 07:11:51;;;;;;;4.10;2.22;;;;;;;23.38;61.72;100297.59;4997210;28;20026;-67
2023/09/18 07:14:16;;;;;;;4.53;2.28;;;;;;;23.39;61.48;100299.25;4998343;28;20038;-67
2023/09/18 07:16:43;;;;;;;5.03;2.60;;;;;;;23.40;61.49;100300.88;4998481;28;20030;-68
2023/09/18 07:19:11;;;;;;;5.18;2.40;;;;;;;23.40;61.22;100299.09;4998198;28;20113;-68
2023/09/18 07:21:37;;;;;;;5.25;2.30;;;;;;;23.40;61.23;100301.75;4998491;28;20569;-68
2023/09/18 07:24:03;;;;;;;4.45;2.30;;;;;;;23.41;61.20;100303.38;4994839;28;20034;-67
2023/09/18 07:26:28;;;;;;;4.65;2.20;;;;;;;23.41;61.37;100299.91;4998091;28;20367;-68
2023/09/18 07:28:54;;;;;;;4.38;2.08;;;;;;;23.42;61.07;100297.06;4997538;28;20030;-68
2023/09/18 07:31:19;;;;;;;4.22;2.45;;;;;;;23.43;60.99;100317.34;4997852;28;20054;-68
2023/09/18 07:33:44;;;;;;;4.20;2.10;;;;;;;23.42;61.46;100302.38;4997895;28;20035;-68
2023/09/18 07:36:10;;;;;;;4.10;2.07;;;;;;;23.43;61.05;100305.88;5012997;28;20041;-68
2023/09/18 07:38:35;;;;;;;4.95;2.20;;;;;;;23.45;61.36;100307.38;4997343;28;20300;-66
2023/09/18 07:41:00;;;;;;;6.70;1.98;;;;;;;23.44;60.89;100316.34;4997534;28;20029;-66
2023/09/18 07:43:26;;;;;;;5.65;2.28;;;;;;;23.43;61.17;100314.69;4998096;28;20078;-67
2023/09/18 07:45:53;;;;;;;5.47;2.75;;;;;;;23.43;61.18;100314.69;4998033;28;20022;-67
2023/09/18 07:48:19;;;;;;;4.07;2.00;;;;;;;23.43;60.83;100311.19;4988517;28;20112;-66
2023/09/18 07:50:45;;;;;;;4.45;2.03;;;;;;;23.43;60.91;100317.34;4997538;28;20030;-67
2023/09/18 07:53:10;;;;;;;4.40;2.30;;;;;;;23.43;60.79;100313.84;4997442;28;20036;-66
2023/09/18 07:55:38;;;;;;;6.22;2.20;;;;;;;23.43;60.92;100320.00;4997674;28;20030;-68
2023/09/18 07:58:04;;;;;;;5.50;1.95;;;;;;;23.42;60.74;100313.03;4997480;28;20041;-67
2023/09/18 08:00:30;;;;;;;5.35;2.35;;;;;;;23.42;60.85;100313.03;4997775;28;20026;-67
2023/09/18 08:03:00;;;;;;;4.90;1.80;;;;;;;23.40;61.04;100296.41;4997139;28;20037;-67
2023/09/18 08:05:30;;;;;;;5.43;2.00;;;;;;;23.41;60.74;100308.69;4997186;28;20062;-66
2023/09/18 08:07:56;;;;;;;4.40;2.10;;;;;;;23.41;61.06;100308.69;4987517;28;20034;-66
2023/09/18 08:10:22;;;;;;;4.40;1.90;;;;;;;23.42;61.21;100322.84;4997656;28;20033;-67
2023/09/18 08:12:48;;;;;;;4.20;1.70;;;;;;;23.42;60.80;100318.34;4997287;28;20034;-68
2023/09/18 08:15:13;;;;;;;4.53;1.80;;;;;;;23.41;60.88;100319.34;4997042;28;20037;-68
2023/09/18 08:17:40;;;;;;;3.60;1.70;;;;;;;23.42;61.18;100322.84;4997243;28;20040;-67
2023/09/18 08:20:12;;;;;;;4.68;1.77;;;;;;;23.41;61.09;100316.66;4997391;28;20066;-67
2023/09/18 08:22:37;;;;;;;4.40;1.70;;;;;;;23.40;61.02;100336.31;4996716;28;20040;-67
2023/09/18 08:25:03;;;;;;;5.80;2.08;;;;;;;23.41;60.50;100319.34;4997478;28;20038;-66
2023/09/18 08:27:29;;;;;;;4.50;1.83;;;;;;;23.40;60.92;100325.66;4997654;28;20027;-68
2023/09/18 08:29:54;;;;;;;5.38;1.73;;;;;;;23.41;60.96;100337.94;4996801;28;20060;-66
2023/09/18 08:32:19;;;;;;;4.28;2.08;;;;;;;23.42;60.69;100341.47;4996937;28;20045;-68
2023/09/18 08:34:44;;;;;;;6.15;1.80;;;;;;;23.42;60.71;100355.56;4996821;28;20034;-66
2023/09/18 08:37:10;;;;;;;5.63;2.20;;;;;;;23.43;61.07;100356.38;4996473;28;20081;-70
2023/09/18 08:39:37;;;;;;;9.30;1.87;;;;;;;23.51;61.21;100359.00;4996051;28;20137;-71
2023/09/18 08:42:04;;;;;;;6.88;1.83;;;;;;;23.53;60.63;100357.03;4995794;28;20271;-72
2023/09/18 08:44:30;;;;;;;5.63;1.83;;;;;;;23.55;60.81;100368.31;4994294;28;20030;-72
2023/09/18 08:46:56;;;;;;;6.20;1.67;;;;;;;23.57;60.95;100363.66;4996729;28;20473;-70
2023/09/18 08:49:25;;;;;;;3.65;1.63;;;;;;;23.57;60.48;100366.31;4993822;28;20062;-68
2023/09/18 08:51:53;;;;;;;4.57;1.70;;;;;;;23.55;60.91;100361.16;4987674;28;20084;-74
2023/09/18 08:54:19;;;;;;;5.20;1.95;;;;;;;23.57;60.68;100363.66;4987364;28;20137;-65
2023/09/18 08:56:44;;;;;;;6.82;1.60;;;;;;;23.57;60.53;100357.50;4996617;28;20534;-67
2023/09/18 08:59:11;;;;;;;4.85;1.60;;;;;;;23.54;60.66;100362.19;4997072;28;20383;-68
2023/09/18 09:01:37;;;;;;;5.65;1.70;;;;;;;23.52;60.80;100353.53;4994370;28;20073;-68
2023/09/18 09:04:03;;;;;;;5.30;1.83;;;;;;;23.51;60.39;100346.56;4996001;28;20061;-67
2023/09/18 09:06:29;;;;;;;3.45;1.90;;;;;;;23.53;60.53;100357.84;4996030;28;20037;-67
2023/09/18 09:08:55;;;;;;;4.53;1.60;;;;;;;23.53;61.05;100355.19;4994421;28;20030;-67
2023/09/18 09:11:20;;;;;;;10.82;2.50;;;;;;;23.48;61.00;100360.22;4995754;28;20372;-66
2023/09/18 09:13:45;;;;;;;4.70;1.70;;;;;;;23.49;60.57;100355.72;4995536;28;20038;-67
2023/09/18 09:16:12;;;;;;;9.10;1.70;;;;;;;23.49;60.75;100359.19;4993863;28;20035;-66
2023/09/18 09:18:48;;;;;;;5.93;1.60;;;;;;;23.47;60.61;100366.50;4995425;28;20479;-66
2023/09/18 09:21:13;;;;;;;4.72;1.63;;;;;;;23.47;60.63;100368.34;4996170;28;20840;-67
2023/09/18 09:23:49;;;;;;;6.60;1.85;;;;;;;23.53;61.06;100373.00;4996431;28;20046;-68
2023/09/18 09:26:18;;;;;;;5.97;1.65;;;;;;;23.58;61.04;100378.63;4996581;28;20026;-68
2023/09/18 09:28:48;;;;;;;3.38;1.60;;;;;;;23.62;60.66;100387.88;4996834;28;20069;-68
2023/09/18 09:31:27;;;;;;;4.63;1.63;;;;;;;23.55;60.52;100373.63;5010698;28;20058;-68
2023/09/18 09:33:53;;;;;;;3.40;1.70;;;;;;;23.57;60.76;100374.28;4997834;28;20055;-68
2023/09/18 09:36:19;;;;;;;4.13;1.73;;;;;;;23.62;61.03;100384.41;4999828;28;20149;-69
2023/09/18 09:38:44;;;;;;;6.30;1.83;;;;;;;23.63;60.75;100383.41;4999293;28;20038;-67
2023/09/18 09:41:14;;;;;;;4.85;1.80;;;;;;;23.65;60.78;100384.88;4999302;28;20034;-68
2023/09/18 09:43:42;;;;;;;4.13;1.92;;;;;;;23.67;60.43;100376.75;4989113;28;20463;-68
2023/09/18 09:46:16;;;;;;;4.32;1.60;;;;;;;23.66;60.44;100364.47;5000281;28;20045;-68
2023/09/18 09:48:59;;;;;;;5.57;1.83;;;;;;;23.67;60.61;100372.28;5000018;28;20029;-67
2023/09/18 09:51:24;;;;;;;4.03;1.70;;;;;;;23.69;60.71;100364.13;5000059;28;20025;-69
2023/09/18 09:53:51;;;;;;;4.53;1.70;;;;;;;23.71;60.82;100367.41;4999890;28;20034;-67
2023/09/18 09:56:21;;;;;;;4.88;1.60;;;;;;;23.66;60.55;100375.09;4995343;28;20081;-67
2023/09/18 09:59:11;;;;;;;5.90;1.90;;;;;;;23.53;61.21;100376.47;4999116;28;20073;-67
2023/09/18 10:01:38;;;;;;;5.18;1.90;;;;;;;23.48;61.01;100378.81;4998505;28;20037;-67
2023/09/18 10:04:07;;;;;;;4.97;1.95;;;;;;;23.46;61.22;100380.81;4989235;28;20404;-67
2023/09/18 10:06:34;;;;;;;5.43;1.75;;;;;;;23.43;61.19;100380.31;4998840;28;20118;-66
2023/09/18 10:09:02;;;;;;;4.63;1.75;;;;;;;23.43;61.29;100389.16;4999405;28;20030;-68
2023/09/18 10:11:30;;;;;;;5.28;1.70;;;;;;;23.44;61.60;100403.25;4998741;28;20038;-66
2023/09/18 10:14:03;;;;;;;3.53;1.60;;;;;;;23.42;61.25;100398.13;4999646;28;20451;-67
2023/09/18 10:16:31;;;;;;;3.35;1.75;;;;;;;23.45;61.59;100400.44;4988607;28;20033;-66
2023/09/18 10:19:08;;;;;;;5.10;1.80;;;;;;;23.42;61.71;100402.63;4997457;28;20037;-66
2023/09/18 10:21:48;;;;;;;6.90;1.60;;;;;;;23.39;61.68;100389.66;4999416;28;20065;-66
2023/09/18 10:24:26;;;;;;;4.00;1.65;;;;;;;23.42;61.65;100395.44;4998821;28;20614;-66
2023/09/18 10:26:58;;;;;;;3.35;1.60;;;;;;;23.45;61.44;100399.59;4998979;28;20478;-66
2023/09/18 10:29:25;;;;;;;4.75;1.67;;;;;;;23.46;61.10;100398.59;4999018;28;20045;-66
2023/09/18 10:31:53;;;;;;;4.60;1.70;;;;;;;23.47;61.28;100403.75;4998892;28;20089;-67
2023/09/18 10:34:19;;;;;;;5.15;1.60;;;;;;;23.48;61.47;100405.41;4999166;28;20030;-67
2023/09/18 10:36:49;;;;;;;5.38;1.80;;;;;;;23.47;61.21;100401.09;4997007;28;20034;-67
2023/09/18 10:39:19;;;;;;;3.67;1.63;;;;;;;23.49;61.30;100414.22;4996401;28;20062;-67
2023/09/18 10:41:47;;;;;;;4.57;1.60;;;;;;;23.47;60.95;100409.06;4996901;28;20640;-69
2023/09/18 10:44:14;;;;;;;5.18;1.63;;;;;;;23.49;61.20;100412.38;4996362;28;20117;-67
2023/09/18 10:46:39;;;;;;;3.75;1.85;;;;;;;23.50;61.39;100414.03;4995835;28;20085;-67
2023/09/18 10:49:05;;;;;;;3.90;1.70;;;;;;;23.49;61.29;100404.38;4996582;28;20467;-67
2023/09/18 10:51:32;;;;;;;3.92;1.90;;;;;;;23.48;61.47;100400.09;5010830;28;20030;-67
2023/09/18 10:53:57;;;;;;;4.68;1.80;;;;;;;23.52;61.19;100398.72;5010107;28;20088;-68
2023/09/18 10:56:24;;;;;;;4.70;1.60;;;;;;;23.55;60.22;100390.41;4996884;28;20034;-66
2023/09/18 10:59:00;;;;;;;5.70;1.83;;;;;;;23.59;60.02;100388.25;4996447;28;20034;-67
2023/09/18 11:01:27;;;;;;;4.15;1.58;;;;;;;23.63;60.15;100389.56;4996757;28;20115;-65
2023/09/18 11:03:53;;;;;;;4.13;1.90;;;;;;;23.66;60.12;100394.53;4995912;28;20430;-65
2023/09/18 11:06:21;;;;;;;4.75;1.90;;;;;;;23.60;60.26;100386.44;4995923;28;20034;-66
2023/09/18 11:08:49;;;;;;;5.32;1.80;;;;;;;23.66;60.35;100383.91;4995521;28;20038;-65
2023/09/18 11:11:20;;;;;;;5.70;1.85;;;;;;;23.68;60.68;100383.72;4994598;28;20046;-66
2023/09/18 11:13:54;;;;;;;6.68;1.90;;;;;;;23.72;59.76;100369.09;4995174;28;20486;-66
2023/09/18 11:16:26;;;;;;;7.45;1.90;;;;;;;23.71;59.97;100378.06;4995025;28;20412;-66
2023/09/18 11:19:13;;;;;;;4.88;1.90;;;;;;;23.75;60.35;100391.84;4995835;28;20031;-68
2023/09/18 11:21:39;;;;;;;7.20;2.20;;;;;;;23.72;60.08;100391.19;4989459;28;20054;-67